createdAt,value
2023-01-10T00:02:21.255Z,31.40
2023-01-10T00:04:50.305Z,29.07
2023-01-10T00:07:19.189Z,30.87
2023-01-10T00:09:49.917Z,30.90
2023-01-10T00:12:50.589Z,32.60
2023-01-10T00:15:19.422Z,30.40
2023-01-10T00:17:48.480Z,28.27
2023-01-10T00:20:18.100Z,25.73
2023-01-10T00:22:47.849Z,26.33
2023-01-10T00:25:19.794Z,27.00
2023-01-10T00:27:49.751Z,26.43
2023-01-10T00:30:19.000Z,27.53
2023-01-10T00:32:48.021Z,27.07
2023-01-10T00:35:17.067Z,26.63
2023-01-10T00:37:45.943Z,28.47
2023-01-10T00:40:15.270Z,26.97
2023-01-10T00:43:03.221Z,28.07
2023-01-10T00:45:32.302Z,27.00
2023-01-10T00:48:00.964Z,26.67
2023-01-10T00:50:29.999Z,25.83
2023-01-10T00:52:58.883Z,25.27
2023-01-10T00:55:28.610Z,23.77
2023-01-10T00:57:59.149Z,25.13
2023-01-10T01:00:28.115Z,24.03
2023-01-10T01:02:57.854Z,21.83
2023-01-10T01:05:27.331Z,22.33
2023-01-10T01:07:56.356Z,21.67
2023-01-10T01:10:28.336Z,21.60
2023-01-10T01:13:01.312Z,21.47
2023-01-10T01:15:30.409Z,21.80
2023-01-10T01:17:59.251Z,21.53
2023-01-10T01:20:28.887Z,21.57
2023-01-10T01:22:58.161Z,21.47
2023-01-10T01:25:27.139Z,21.73
2023-01-10T01:27:56.317Z,20.87
2023-01-10T01:30:26.951Z,20.83
2023-01-10T01:32:55.962Z,22.23
2023-01-10T01:35:25.885Z,21.93
2023-01-10T01:37:54.653Z,20.27
2023-01-10T01:40:24.831Z,21.10
2023-01-10T01:42:56.002Z,21.20
2023-01-10T01:45:50.863Z,20.33
2023-01-10T01:48:37.733Z,19.80
2023-01-10T01:51:10.603Z,21.00
2023-01-10T01:53:44.565Z,19.87
2023-01-10T01:56:17.931Z,19.63
2023-01-10T01:58:51.540Z,20.23
2023-01-10T02:01:24.113Z,20.83
2023-01-10T02:03:59.062Z,19.63
2023-01-10T02:06:28.246Z,20.50
2023-01-10T02:09:07.393Z,19.97
2023-01-10T02:11:36.381Z,20.60
2023-01-10T02:14:07.050Z,22.03
2023-01-10T02:16:37.831Z,21.47
2023-01-10T02:19:15.888Z,20.77
2023-01-10T02:22:20.216Z,19.23
2023-01-10T02:25:38.325Z,19.70
2023-01-10T02:28:54.728Z,20.27
2023-01-10T02:31:50.347Z,19.63
2023-01-10T02:34:25.667Z,19.13
2023-01-10T02:37:02.874Z,18.97
2023-01-10T02:39:38.015Z,19.77
2023-01-10T02:42:10.185Z,19.83
2023-01-10T02:44:46.680Z,19.70
2023-01-10T02:47:16.401Z,19.47
2023-01-10T02:49:48.950Z,19.67
2023-01-10T02:52:29.284Z,19.00
2023-01-10T02:55:03.570Z,18.73
2023-01-10T02:57:46.783Z,19.03
2023-01-10T03:00:30.305Z,20.10
2023-01-10T03:03:15.812Z,20.13
2023-01-10T03:06:09.958Z,20.13
2023-01-10T03:08:45.012Z,19.40
2023-01-10T03:11:14.117Z,18.47
2023-01-10T03:13:48.417Z,20.13
2023-01-10T03:16:20.624Z,23.57
2023-01-10T03:18:54.760Z,38.77
2023-01-10T03:21:27.752Z,28.33
2023-01-10T03:24:02.972Z,20.50
2023-01-10T03:26:38.984Z,19.73
2023-01-10T03:29:11.500Z,20.17
2023-01-10T03:31:46.443Z,19.07
2023-01-10T03:34:16.223Z,18.63
2023-01-10T03:36:54.226Z,19.27
2023-01-10T03:39:32.396Z,19.13
2023-01-10T03:42:07.547Z,18.67
2023-01-10T03:44:44.699Z,20.37
2023-01-10T03:47:20.760Z,20.10
2023-01-10T03:49:52.295Z,20.03
2023-01-10T03:52:23.601Z,18.73
2023-01-10T03:54:54.041Z,18.67
2023-01-10T03:57:24.915Z,17.93
2023-01-10T03:59:58.062Z,18.40
2023-01-10T04:02:28.665Z,19.03
2023-01-10T04:04:57.677Z,17.23
2023-01-10T04:07:29.088Z,18.53
2023-01-10T04:09:58.311Z,18.70
2023-01-10T04:12:27.679Z,17.10
2023-01-10T04:14:56.806Z,17.93
2023-01-10T04:17:25.788Z,17.77
2023-01-10T04:19:55.118Z,18.73
2023-01-10T04:22:24.229Z,20.07
2023-01-10T04:24:54.734Z,19.73
2023-01-10T04:27:24.510Z,20.13
2023-01-10T04:29:53.510Z,20.67
2023-01-10T04:32:22.487Z,20.37
2023-01-10T04:34:51.524Z,18.90
2023-01-10T04:37:20.347Z,19.57
2023-01-10T04:39:49.344Z,18.87
2023-01-10T04:42:20.251Z,18.30
2023-01-10T04:44:49.004Z,19.70
2023-01-10T04:47:18.036Z,18.90
2023-01-10T04:49:47.080Z,19.33
2023-01-10T04:52:15.817Z,18.40
2023-01-10T04:54:44.536Z,18.47
2023-01-10T04:57:13.676Z,18.20
2023-01-10T04:59:44.321Z,17.80
2023-01-10T05:02:13.372Z,18.40
2023-01-10T05:04:42.541Z,17.10
2023-01-10T05:07:11.774Z,17.97
2023-01-10T05:09:40.812Z,17.90
2023-01-10T05:12:10.008Z,16.73
2023-01-10T05:14:38.768Z,16.70
2023-01-10T05:17:09.544Z,16.70
2023-01-10T05:19:38.605Z,16.10
2023-01-10T05:22:07.468Z,16.17
2023-01-10T05:24:36.527Z,15.97
2023-01-10T05:27:05.450Z,15.93
2023-01-10T05:29:34.636Z,16.30
2023-01-10T05:32:03.603Z,16.27
2023-01-10T05:34:34.401Z,16.13
2023-01-10T05:37:03.487Z,16.60
2023-01-10T05:39:32.460Z,16.60
2023-01-10T05:42:01.524Z,16.00
2023-01-10T05:44:30.506Z,15.83
2023-01-10T05:46:59.589Z,16.43
2023-01-10T05:49:28.547Z,15.80
2023-01-10T05:51:58.973Z,15.00
2023-01-10T05:54:29.753Z,14.70
2023-01-10T05:56:58.921Z,17.23
2023-01-10T05:59:28.656Z,16.43
2023-01-10T06:01:57.855Z,16.50
2023-01-10T06:04:26.809Z,15.67
2023-01-10T06:06:56.081Z,14.93
2023-01-10T06:09:26.610Z,15.47
2023-01-10T06:11:56.498Z,15.30
2023-01-10T06:14:25.645Z,15.60
2023-01-10T06:16:54.660Z,15.17
2023-01-10T06:19:23.780Z,14.53
2023-01-10T06:21:52.825Z,14.13
2023-01-10T06:24:21.490Z,14.53
2023-01-10T06:26:52.195Z,14.20
2023-01-10T06:29:21.278Z,14.23
2023-01-10T06:31:50.254Z,14.73
2023-01-10T06:34:19.256Z,13.63
2023-01-10T06:36:48.301Z,14.00
2023-01-10T06:39:17.373Z,14.30
2023-01-10T06:41:46.405Z,13.60
2023-01-10T06:44:17.040Z,13.93
2023-01-10T06:46:45.910Z,13.73
2023-01-10T06:49:14.892Z,15.37
2023-01-10T06:51:44.152Z,14.17
2023-01-10T06:54:13.206Z,15.67
2023-01-10T06:56:42.168Z,15.03
2023-01-10T06:59:11.213Z,15.07
2023-01-10T07:01:41.764Z,14.90
2023-01-10T07:04:10.932Z,14.43
2023-01-10T07:06:40.119Z,15.00
2023-01-10T07:09:09.774Z,15.07
2023-01-10T07:11:38.583Z,15.33
2023-01-10T07:14:09.762Z,14.37
2023-01-10T07:16:40.561Z,14.93
2023-01-10T07:19:09.567Z,14.33
2023-01-10T07:21:38.631Z,13.97
2023-01-10T07:24:08.962Z,15.17
2023-01-10T07:26:37.793Z,14.07
2023-01-10T07:29:06.744Z,13.97
2023-01-10T07:31:35.861Z,13.67
2023-01-10T07:34:06.124Z,13.43
2023-01-10T07:36:38.539Z,13.57
2023-01-10T07:39:08.684Z,14.03
2023-01-10T07:41:37.674Z,13.57
2023-01-10T07:44:07.269Z,14.20
2023-01-10T07:46:36.295Z,14.30
2023-01-10T07:49:07.281Z,13.23
2023-01-10T07:51:36.292Z,13.03
2023-01-10T07:54:05.925Z,13.33
2023-01-10T07:56:35.011Z,13.80
2023-01-10T07:59:04.051Z,13.57
2023-01-10T08:01:32.827Z,13.40
2023-01-10T08:04:01.831Z,13.60
2023-01-10T08:06:32.554Z,12.90
2023-01-10T08:09:04.009Z,14.10
2023-01-10T08:11:33.337Z,13.67
2023-01-10T08:14:02.043Z,13.97
2023-01-10T08:16:30.807Z,12.80
2023-01-10T08:18:59.502Z,12.60
2023-01-10T08:21:28.345Z,12.80
2023-01-10T08:23:58.875Z,12.73
2023-01-10T08:26:27.925Z,11.87
2023-01-10T08:28:56.850Z,12.83
2023-01-10T08:31:25.962Z,12.17
2023-01-10T08:33:56.806Z,11.67
2023-01-10T08:36:25.844Z,12.90
2023-01-10T08:38:56.427Z,12.90
2023-01-10T08:41:26.706Z,12.23
2023-01-10T08:43:55.681Z,12.67
2023-01-10T08:46:24.711Z,13.87
2023-01-10T08:48:53.684Z,12.57
2023-01-10T08:51:22.601Z,12.73
2023-01-10T08:53:51.560Z,12.50
2023-01-10T08:56:20.671Z,13.20
2023-01-10T08:58:51.080Z,12.63
2023-01-10T09:01:20.058Z,13.53
2023-01-10T09:03:49.871Z,13.30
2023-01-10T09:06:18.608Z,13.57
2023-01-10T09:08:47.483Z,12.77
2023-01-10T09:11:16.478Z,13.20
2023-01-10T09:13:45.205Z,13.37
2023-01-10T09:16:15.398Z,13.70
2023-01-10T09:18:44.186Z,14.10
2023-01-10T09:21:12.981Z,13.50
2023-01-10T09:23:43.583Z,14.20
2023-01-10T09:26:12.365Z,13.90
2023-01-10T09:28:41.090Z,14.60
2023-01-10T09:31:11.347Z,14.53
2023-01-10T09:33:47.266Z,15.37
2023-01-10T09:36:16.682Z,15.10
2023-01-10T09:38:45.762Z,14.73
2023-01-10T09:41:41.633Z,13.73
2023-01-10T09:44:19.576Z,13.87
2023-01-10T09:46:58.033Z,14.67
2023-01-10T09:49:41.741Z,14.93
2023-01-10T09:52:21.571Z,14.87
2023-01-10T09:54:53.400Z,15.00
2023-01-10T09:57:24.451Z,15.20
2023-01-10T09:59:54.668Z,16.60
2023-01-10T10:02:32.008Z,16.17
2023-01-10T10:05:10.927Z,15.37
2023-01-10T10:07:40.414Z,15.03
2023-01-10T10:10:23.938Z,17.90
2023-01-10T10:13:06.804Z,15.73
2023-01-10T10:15:44.925Z,16.63
2023-01-10T10:18:22.493Z,14.93
2023-01-10T10:21:00.976Z,15.93
2023-01-10T10:23:59.416Z,15.33
2023-01-10T10:26:34.663Z,13.27
2023-01-10T10:29:37.007Z,13.87
2023-01-10T10:32:27.049Z,13.30
2023-01-10T10:35:00.061Z,13.37
2023-01-10T10:37:37.186Z,13.77
2023-01-10T10:40:08.921Z,13.87
2023-01-10T10:42:43.150Z,14.10
2023-01-10T10:45:19.992Z,19.67
2023-01-10T10:47:55.862Z,16.80
2023-01-10T10:50:32.539Z,15.23
2023-01-10T10:53:05.002Z,15.03
2023-01-10T10:55:37.054Z,16.07
2023-01-10T10:58:08.092Z,15.77
2023-01-10T11:00:36.834Z,15.80
2023-01-10T11:03:25.110Z,16.10
2023-01-10T11:05:54.894Z,15.80
2023-01-10T11:08:25.752Z,16.70
2023-01-10T11:10:56.621Z,16.63
2023-01-10T11:13:36.951Z,16.73
2023-01-10T11:16:08.126Z,18.40
2023-01-10T11:18:38.557Z,17.37
2023-01-10T11:21:13.089Z,18.60
2023-01-10T11:23:54.941Z,18.90
2023-01-10T11:26:28.377Z,22.33
2023-01-10T11:29:09.449Z,18.97
2023-01-10T11:31:38.494Z,20.43
2023-01-10T11:34:18.413Z,17.50
2023-01-10T11:37:02.076Z,17.33
2023-01-10T11:39:33.857Z,18.83
2023-01-10T11:42:29.672Z,16.80
2023-01-10T11:45:23.474Z,18.20
2023-01-10T11:47:55.488Z,20.13
2023-01-10T11:50:28.376Z,26.70
2023-01-10T11:52:58.260Z,16.47
2023-01-10T11:55:34.215Z,28.73
2023-01-10T11:58:06.659Z,21.47
2023-01-10T12:00:41.540Z,26.07
2023-01-10T12:03:27.420Z,17.87
2023-01-10T12:06:00.013Z,16.17
2023-01-10T12:08:32.159Z,16.27
2023-01-10T12:11:06.019Z,15.57
2023-01-10T12:13:53.340Z,15.90
2023-01-10T12:16:24.923Z,16.30
2023-01-10T12:18:55.638Z,15.20
2023-01-10T12:21:32.240Z,16.00
2023-01-10T12:24:05.217Z,15.63
2023-01-10T12:26:36.851Z,16.87
2023-01-10T12:29:12.102Z,16.57
2023-01-10T12:31:42.420Z,16.23
2023-01-10T12:34:20.476Z,15.30
2023-01-10T12:36:59.804Z,15.93
2023-01-10T12:39:33.813Z,14.77
2023-01-10T12:42:37.957Z,13.47
2023-01-10T12:45:11.267Z,14.87
2023-01-10T12:47:53.667Z,13.87
2023-01-10T12:50:27.584Z,14.40
2023-01-10T12:53:01.994Z,13.30
2023-01-10T12:55:35.838Z,12.80
2023-01-10T12:58:07.723Z,12.53
2023-01-10T13:00:48.211Z,12.57
2023-01-10T13:03:21.922Z,12.80
2023-01-10T13:05:53.118Z,12.40
2023-01-10T13:08:27.427Z,11.67
2023-01-10T13:10:58.997Z,11.43
2023-01-10T13:13:36.531Z,11.37
2023-01-10T13:16:19.569Z,11.67
2023-01-10T13:19:04.797Z,10.70
2023-01-10T13:21:35.511Z,11.20
2023-01-10T13:24:07.195Z,10.80
2023-01-10T13:26:53.659Z,10.00
2023-01-10T13:29:25.961Z,9.83
2023-01-10T13:31:58.413Z,10.00
2023-01-10T13:34:33.901Z,9.90
2023-01-10T13:37:06.749Z,9.73
2023-01-10T13:39:39.440Z,9.43
2023-01-10T13:42:45.417Z,9.60
2023-01-10T13:45:28.318Z,9.20
2023-01-10T13:48:25.913Z,9.00
2023-01-10T13:51:16.735Z,8.93
2023-01-10T13:53:58.651Z,8.20
2023-01-10T13:56:33.087Z,9.13
2023-01-10T13:59:20.541Z,9.13
2023-01-10T14:02:13.437Z,8.30
2023-01-10T14:04:48.764Z,8.63
2023-01-10T14:07:26.787Z,8.07
2023-01-10T14:10:05.441Z,7.93
2023-01-10T14:12:39.698Z,7.87
2023-01-10T14:15:22.716Z,8.27
2023-01-10T14:17:59.487Z,8.10
2023-01-10T14:20:29.602Z,8.63
2023-01-10T14:23:05.457Z,8.20
2023-01-10T14:25:36.942Z,8.33
2023-01-10T14:28:17.368Z,9.30
2023-01-10T14:30:54.837Z,8.50
2023-01-10T14:33:25.143Z,8.33
2023-01-10T14:35:59.189Z,8.77
2023-01-10T14:38:31.538Z,8.73
2023-01-10T14:41:04.603Z,9.60
2023-01-10T14:43:42.289Z,9.43
2023-01-10T14:46:16.687Z,10.20
2023-01-10T14:48:51.695Z,9.27
2023-01-10T14:51:24.214Z,10.33
2023-01-10T14:54:01.369Z,11.93
2023-01-10T14:56:37.583Z,22.93
2023-01-10T14:59:18.783Z,25.77
2023-01-10T15:01:50.117Z,23.63
2023-01-10T15:04:23.112Z,23.13
2023-01-10T15:06:53.423Z,21.97
2023-01-10T15:09:22.349Z,21.90
2023-01-10T15:12:05.767Z,24.20
2023-01-10T15:14:36.268Z,25.63
2023-01-10T15:17:09.201Z,32.33
2023-01-10T15:19:40.607Z,18.93
2023-01-10T15:22:20.400Z,30.90
2023-01-10T15:25:00.268Z,23.50
2023-01-10T15:27:29.621Z,21.40
2023-01-10T15:29:59.449Z,18.23
2023-01-10T15:32:34.076Z,17.73
2023-01-10T15:35:05.509Z,18.27
2023-01-10T15:37:40.907Z,17.33
2023-01-10T15:40:23.088Z,18.67
2023-01-10T15:42:52.094Z,19.67
2023-01-10T15:45:30.911Z,19.53
2023-01-10T15:48:04.101Z,19.00
2023-01-10T15:50:38.821Z,19.23
2023-01-10T15:53:10.141Z,19.60
2023-01-10T15:55:42.796Z,19.67
2023-01-10T15:58:20.075Z,19.87
2023-01-10T16:00:51.211Z,19.17
2023-01-10T16:03:25.972Z,19.67
2023-01-10T16:05:59.370Z,20.90
2023-01-10T16:08:32.656Z,20.53
2023-01-10T16:11:04.417Z,19.00
2023-01-10T16:13:34.073Z,20.37
2023-01-10T16:16:05.163Z,20.53
2023-01-10T16:18:35.871Z,20.87
2023-01-10T16:21:11.285Z,22.40
2023-01-10T16:23:46.097Z,22.17
2023-01-10T16:26:16.049Z,21.37
2023-01-10T16:28:45.418Z,21.40
2023-01-10T16:31:15.560Z,22.60
2023-01-10T16:33:45.550Z,23.50
2023-01-10T16:36:21.395Z,25.33
2023-01-10T16:38:50.276Z,21.73
2023-01-10T16:41:36.476Z,21.87
2023-01-10T16:44:05.241Z,20.03
2023-01-10T16:46:33.968Z,19.63
2023-01-10T16:49:05.570Z,17.90
2023-01-10T16:51:40.796Z,18.77
2023-01-10T16:54:15.090Z,17.67
2023-01-10T16:56:45.204Z,17.90
2023-01-10T16:59:14.438Z,16.87
2023-01-10T17:01:46.542Z,17.63
2023-01-10T17:04:24.246Z,19.00
2023-01-10T17:06:56.613Z,19.53
2023-01-10T17:09:26.991Z,20.40
2023-01-10T17:12:02.263Z,20.27
2023-01-10T17:14:32.783Z,18.77
2023-01-10T17:17:03.110Z,18.97
2023-01-10T17:19:32.340Z,19.57
2023-01-10T17:22:02.714Z,20.40
2023-01-10T17:24:31.842Z,21.60
2023-01-10T17:27:00.531Z,20.47
2023-01-10T17:29:30.331Z,22.33
2023-01-10T17:31:59.091Z,20.13
2023-01-10T17:34:29.783Z,20.43
2023-01-10T17:36:58.827Z,20.37
2023-01-10T17:39:29.659Z,19.80
2023-01-10T17:41:59.204Z,20.43
2023-01-10T17:44:27.968Z,19.17
2023-01-10T17:46:57.329Z,19.37
2023-01-10T17:49:26.432Z,19.23
2023-01-10T17:51:55.156Z,22.93
2023-01-10T17:54:24.174Z,28.87
2023-01-10T17:56:54.578Z,25.70
2023-01-10T17:59:23.402Z,26.00
2023-01-10T18:01:52.485Z,23.77
2023-01-10T18:04:21.286Z,24.10
2023-01-10T18:06:52.120Z,23.47
2023-01-10T18:09:21.593Z,23.80
2023-01-10T18:11:50.277Z,25.43
2023-01-10T18:14:34.311Z,24.40
2023-01-10T18:17:03.250Z,23.83
2023-01-10T18:19:32.339Z,22.13
2023-01-10T18:22:01.372Z,22.60
2023-01-10T18:24:30.223Z,21.77
2023-01-10T18:26:59.464Z,20.17
2023-01-10T18:29:29.872Z,21.50
2023-01-10T18:31:58.920Z,22.53
2023-01-10T18:34:27.932Z,20.60
2023-01-10T18:36:57.042Z,21.60
2023-01-10T18:39:26.133Z,21.47
2023-01-10T18:41:55.103Z,22.23
2023-01-10T18:44:23.975Z,22.20
2023-01-10T18:46:54.373Z,23.83
2023-01-10T18:49:23.164Z,24.23
2023-01-10T18:51:52.496Z,22.40
2023-01-10T18:54:21.463Z,20.20
2023-01-10T18:56:51.177Z,21.10
2023-01-10T18:59:20.338Z,21.77
2023-01-10T19:01:49.692Z,25.23
2023-01-10T19:04:20.138Z,24.90
2023-01-10T19:06:49.293Z,24.27
2023-01-10T19:09:19.379Z,26.00
2023-01-10T19:11:48.529Z,27.03
2023-01-10T19:14:19.534Z,27.00
2023-01-10T19:16:48.651Z,25.87
2023-01-10T19:19:17.777Z,25.77
2023-01-10T19:21:48.568Z,26.40
2023-01-10T19:24:23.479Z,29.50
2023-01-10T19:26:52.654Z,29.87
2023-01-10T19:29:22.392Z,27.37
2023-01-10T19:31:52.746Z,27.33
2023-01-10T19:34:21.944Z,25.10
2023-01-10T19:36:52.730Z,25.07
2023-01-10T19:39:21.957Z,27.57
2023-01-10T19:41:51.023Z,27.97
2023-01-10T19:44:19.915Z,33.47
2023-01-10T19:46:49.220Z,28.50
2023-01-10T19:49:19.673Z,28.20
2023-01-10T19:51:53.779Z,27.20
2023-01-10T19:54:23.814Z,25.73
2023-01-10T19:56:52.846Z,25.20
2023-01-10T19:59:22.022Z,25.87
2023-01-10T20:01:51.198Z,27.27
2023-01-10T20:04:20.289Z,29.30
2023-01-10T20:06:49.405Z,27.80
2023-01-10T20:09:20.612Z,27.43
2023-01-10T20:11:49.559Z,26.87
2023-01-10T20:14:20.456Z,27.77
2023-01-10T20:16:52.313Z,27.27
2023-01-10T20:19:29.764Z,27.07
2023-01-10T20:21:58.963Z,26.23
2023-01-10T20:24:30.189Z,24.27
2023-01-10T20:27:00.761Z,24.80
2023-01-10T20:29:29.999Z,24.97
2023-01-10T20:32:01.074Z,22.60
2023-01-10T20:34:31.100Z,23.47
2023-01-10T20:36:59.935Z,23.00
2023-01-10T20:39:31.409Z,21.67
2023-01-10T20:42:00.718Z,22.10
2023-01-10T20:44:30.143Z,24.87
2023-01-10T20:46:59.388Z,24.63
2023-01-10T20:49:28.591Z,24.83
2023-01-10T20:51:57.642Z,28.93
2023-01-10T20:54:26.993Z,26.63
2023-01-10T20:56:57.821Z,28.43
2023-01-10T20:59:28.870Z,28.93
2023-01-10T21:01:58.266Z,32.87
2023-01-10T21:04:27.426Z,33.57
2023-01-10T21:06:56.509Z,31.70
2023-01-10T21:09:25.821Z,26.13
2023-01-10T21:12:07.477Z,25.30
2023-01-10T21:14:42.573Z,25.23
2023-01-10T21:17:12.173Z,25.20
2023-01-10T21:19:41.162Z,27.03
2023-01-10T21:22:09.976Z,27.60
2023-01-10T21:24:38.813Z,26.43
2023-01-10T21:27:09.591Z,27.07
2023-01-10T21:29:38.717Z,26.87
2023-01-10T21:32:09.425Z,27.80
2023-01-10T21:34:39.587Z,25.93
2023-01-10T21:37:08.400Z,28.40
2023-01-10T21:39:37.418Z,27.23
2023-01-10T21:42:23.877Z,26.13
2023-01-10T21:44:54.480Z,26.87
2023-01-10T21:47:23.657Z,26.67
2023-01-10T21:49:52.740Z,26.53
2023-01-10T21:52:21.994Z,26.27
2023-01-10T21:54:50.986Z,25.87
2023-01-10T21:57:22.431Z,25.00
2023-01-10T21:59:51.593Z,25.13
2023-01-10T22:02:24.091Z,28.30
2023-01-10T22:04:54.925Z,25.33
2023-01-10T22:07:25.595Z,26.57
2023-01-10T22:09:55.296Z,26.70
2023-01-10T22:12:25.618Z,22.83
2023-01-10T22:14:54.573Z,24.00
2023-01-10T22:17:25.152Z,25.17
2023-01-10T22:19:54.007Z,24.83
2023-01-10T22:22:23.027Z,24.73
2023-01-10T22:24:51.759Z,25.47
2023-01-10T22:27:21.298Z,27.50
2023-01-10T22:29:50.315Z,25.57
2023-01-10T22:32:19.372Z,25.00
2023-01-10T22:34:50.071Z,24.53
2023-01-10T22:37:18.969Z,24.23
2023-01-10T22:39:48.680Z,24.53
2023-01-10T22:42:18.627Z,30.50
2023-01-10T22:44:47.700Z,24.60
2023-01-10T22:47:16.671Z,22.97
2023-01-10T22:49:45.680Z,24.57
2023-01-10T22:52:15.757Z,22.43
2023-01-10T22:54:44.820Z,24.00
2023-01-10T22:57:14.489Z,24.37
2023-01-10T22:59:43.421Z,25.60
2023-01-10T23:02:14.176Z,27.53
2023-01-10T23:04:43.349Z,29.87
2023-01-10T23:07:13.106Z,24.33
2023-01-10T23:09:43.425Z,25.23
2023-01-10T23:12:12.459Z,24.87
2023-01-10T23:14:41.473Z,24.57
2023-01-10T23:17:10.886Z,24.53
2023-01-10T23:19:39.595Z,24.40
2023-01-10T23:22:08.400Z,24.80
2023-01-10T23:24:37.414Z,24.50
2023-01-10T23:27:08.005Z,24.97
2023-01-10T23:29:37.000Z,24.93
2023-01-10T23:32:06.529Z,23.80
2023-01-10T23:34:35.719Z,23.10
2023-01-10T23:37:05.265Z,22.87
2023-01-10T23:39:34.253Z,23.17
2023-01-10T23:42:03.268Z,22.93
2023-01-10T23:44:34.274Z,25.17
2023-01-10T23:47:03.057Z,21.97
2023-01-10T23:49:31.950Z,22.03
2023-01-10T23:52:00.760Z,21.07
2023-01-10T23:54:29.965Z,22.00
2023-01-10T23:56:59.860Z,20.33
2023-01-10T23:59:28.821Z,21.20
